createdAt,value
2022-08-21T00:00:32.810Z,16.50
2022-08-21T00:03:02.516Z,16.50
2022-08-21T00:05:30.080Z,16.50
2022-08-21T00:07:57.238Z,16.50
2022-08-21T00:10:24.374Z,16.50
2022-08-21T00:12:52.157Z,16.40
2022-08-21T00:15:24.771Z,16.40
2022-08-21T00:17:51.823Z,16.40
2022-08-21T00:20:18.938Z,16.40
2022-08-21T00:22:46.273Z,16.40
2022-08-21T00:25:14.221Z,16.30
2022-08-21T00:27:43.166Z,16.30
2022-08-21T00:30:11.097Z,16.30
2022-08-21T00:32:46.741Z,16.30
2022-08-21T00:35:17.970Z,16.30
2022-08-21T00:37:47.752Z,16.30
2022-08-21T00:40:16.647Z,16.30
2022-08-21T00:42:44.929Z,16.20
2022-08-21T00:45:21.130Z,16.20
2022-08-21T00:47:48.061Z,16.20
2022-08-21T00:50:21.600Z,16.20
2022-08-21T00:52:50.529Z,16.10
2022-08-21T00:55:17.737Z,16.10
2022-08-21T00:57:46.939Z,16.10
2022-08-21T01:00:19.997Z,16.10
2022-08-21T01:02:47.605Z,16.00
2022-08-21T01:05:15.116Z,16.00
2022-08-21T01:07:42.469Z,16.00
2022-08-21T01:10:09.805Z,16.00
2022-08-21T01:12:47.529Z,16.00
2022-08-21T01:15:16.132Z,16.00
2022-08-21T01:17:42.980Z,16.00
2022-08-21T01:20:10.994Z,16.00
2022-08-21T01:22:40.406Z,16.00
2022-08-21T01:25:08.336Z,16.00
2022-08-21T01:27:35.206Z,15.90
2022-08-21T01:49:38.715Z,15.80
2022-08-21T01:52:05.890Z,15.70
2022-08-21T01:54:36.795Z,15.70
2022-08-21T01:57:04.468Z,15.70
2022-08-21T01:59:31.912Z,15.60
2022-08-21T02:02:04.812Z,15.70
2022-08-21T02:04:31.952Z,15.70
2022-08-21T02:06:58.912Z,15.70
2022-08-21T02:09:25.956Z,15.60
2022-08-21T02:11:53.614Z,15.60
2022-08-21T02:14:27.212Z,15.60
2022-08-21T02:17:05.491Z,15.70
2022-08-21T02:19:40.067Z,15.70
2022-08-21T02:22:09.711Z,15.70
2022-08-21T02:24:50.579Z,15.70
2022-08-21T02:27:26.564Z,15.60
2022-08-21T02:29:57.402Z,15.60
2022-08-21T02:32:24.661Z,15.60
2022-08-21T02:34:51.702Z,15.60
2022-08-21T02:37:18.675Z,15.60
2022-08-21T02:39:45.548Z,15.60
2022-08-21T02:42:12.446Z,15.60
2022-08-21T02:44:39.310Z,15.60
2022-08-21T02:47:06.262Z,15.60
2022-08-21T02:49:33.180Z,15.60
2022-08-21T02:52:00.351Z,15.60
2022-08-21T02:54:27.243Z,15.60
2022-08-21T02:56:54.342Z,15.60
2022-08-21T02:59:21.225Z,15.60
2022-08-21T03:01:48.425Z,15.60
2022-08-21T03:04:15.491Z,15.60
2022-08-21T03:06:42.632Z,15.50
2022-08-21T03:09:09.504Z,15.60
2022-08-21T03:11:37.258Z,15.60
2022-08-21T03:14:06.361Z,15.60
2022-08-21T03:16:35.312Z,15.60
2022-08-21T03:19:02.455Z,15.60
2022-08-21T03:21:30.556Z,15.60
2022-08-21T03:23:58.004Z,15.60
2022-08-21T03:26:26.718Z,15.50
2022-08-21T03:28:54.878Z,15.50
2022-08-21T03:31:22.864Z,15.40
2022-08-21T03:33:49.803Z,15.40
2022-08-21T03:36:16.963Z,15.40
2022-08-21T03:38:43.990Z,15.40
2022-08-21T03:41:10.868Z,15.40
2022-08-21T03:43:37.905Z,15.40
2022-08-21T03:46:05.019Z,15.40
2022-08-21T03:48:32.445Z,15.30
2022-08-21T03:51:01.176Z,15.30
2022-08-21T03:53:28.159Z,15.30
2022-08-21T03:55:55.038Z,15.30
2022-08-21T03:58:24.077Z,15.30
2022-08-21T04:00:52.827Z,15.20
2022-08-21T04:03:19.811Z,15.20
2022-08-21T04:05:47.110Z,15.20
2022-08-21T04:08:14.779Z,15.20
2022-08-21T04:10:44.851Z,15.20
2022-08-21T04:13:11.862Z,15.20
2022-08-21T04:15:38.785Z,15.20
2022-08-21T04:18:07.009Z,15.20
2022-08-21T04:20:34.263Z,15.10
2022-08-21T04:23:01.899Z,15.10
2022-08-21T04:25:29.195Z,15.10
2022-08-21T04:27:56.176Z,15.10
2022-08-21T04:30:28.779Z,15.10
2022-08-21T04:32:56.223Z,15.10
2022-08-21T04:35:23.806Z,15.00
2022-08-21T04:37:50.800Z,15.00
2022-08-21T04:40:18.962Z,15.00
2022-08-21T04:43:07.018Z,14.90
2022-08-21T04:45:38.985Z,15.00
2022-08-21T04:48:11.995Z,15.00
2022-08-21T04:50:48.788Z,15.00
2022-08-21T04:53:19.533Z,14.90
2022-08-21T04:55:47.158Z,14.90
2022-08-21T04:58:17.667Z,14.80
2022-08-21T05:00:45.066Z,14.70
2022-08-21T05:03:11.972Z,14.70
2022-08-21T05:05:39.115Z,14.80
2022-08-21T05:08:06.039Z,14.80
2022-08-21T05:10:33.415Z,14.80
2022-08-21T05:13:01.063Z,14.90
2022-08-21T05:15:28.078Z,14.80
2022-08-21T05:18:00.789Z,14.80
2022-08-21T05:20:29.084Z,14.80
2022-08-21T05:22:55.981Z,14.80
2022-08-21T05:25:23.691Z,14.80
2022-08-21T05:27:52.552Z,14.90
2022-08-21T05:30:20.046Z,14.90
2022-08-21T05:32:47.145Z,14.90
2022-08-21T05:35:14.777Z,15.00
2022-08-21T05:37:41.759Z,15.10
2022-08-21T05:40:22.802Z,15.10
2022-08-21T05:42:56.632Z,15.20
2022-08-21T05:45:41.956Z,15.20
2022-08-21T05:48:23.122Z,15.30
2022-08-21T05:50:50.912Z,15.30
2022-08-21T05:53:18.517Z,15.40
2022-08-21T05:55:46.673Z,15.50
2022-08-21T05:58:20.799Z,15.50
2022-08-21T06:00:48.932Z,15.60
2022-08-21T06:03:25.056Z,15.70
2022-08-21T06:05:52.250Z,15.70
2022-08-21T06:08:19.657Z,15.80
2022-08-21T06:10:47.111Z,15.90
2022-08-21T06:13:14.176Z,15.90
2022-08-21T06:15:41.425Z,15.90
2022-08-21T06:18:08.685Z,15.90
2022-08-21T06:20:35.917Z,15.90
2022-08-21T06:23:03.157Z,16.00
2022-08-21T06:25:33.402Z,16.00
2022-08-21T06:28:06.146Z,16.00
2022-08-21T06:30:33.367Z,16.10
2022-08-21T06:33:00.591Z,16.20
2022-08-21T06:35:30.070Z,16.20
2022-08-21T06:37:58.789Z,16.30
2022-08-21T06:40:27.144Z,16.40
2022-08-21T06:42:57.649Z,16.50
2022-08-21T06:45:25.216Z,16.60
2022-08-21T06:47:55.958Z,16.70
2022-08-21T06:50:23.018Z,16.70
2022-08-21T06:52:50.261Z,16.80
2022-08-21T06:55:21.661Z,16.90
2022-08-21T06:57:52.631Z,16.90
2022-08-21T07:00:20.335Z,16.90
2022-08-21T07:02:47.416Z,17.00
2022-08-21T07:05:18.118Z,17.10
2022-08-21T07:07:45.887Z,17.20
2022-08-21T07:10:22.538Z,17.30
2022-08-21T07:12:51.037Z,17.40
2022-08-21T07:15:19.863Z,17.50
2022-08-21T07:17:46.856Z,17.60
2022-08-21T07:20:14.211Z,17.70
2022-08-21T07:22:41.290Z,17.80
2022-08-21T07:25:09.370Z,17.90
2022-08-21T07:27:36.878Z,18.10
2022-08-21T07:30:05.392Z,18.20
2022-08-21T07:32:32.551Z,18.30
2022-08-21T07:34:59.703Z,18.40
2022-08-21T07:37:26.642Z,18.50
2022-08-21T07:39:54.037Z,18.50
2022-08-21T07:42:21.226Z,18.50
2022-08-21T07:44:48.256Z,18.50
2022-08-21T07:47:41.263Z,18.60
2022-08-21T07:50:05.707Z,18.70
2022-08-21T07:52:33.675Z,18.70
2022-08-21T07:55:06.827Z,18.80
2022-08-21T07:57:34.243Z,18.90
2022-08-21T08:00:01.141Z,19.00
2022-08-21T08:02:29.702Z,19.10
2022-08-21T08:05:06.264Z,19.10
2022-08-21T08:07:33.372Z,19.20
2022-08-21T08:10:00.384Z,19.20
2022-08-21T08:12:30.742Z,19.30
2022-08-21T08:15:01.390Z,19.30
2022-08-21T08:17:28.334Z,19.30
2022-08-21T08:19:55.388Z,19.30
2022-08-21T08:22:25.283Z,19.20
2022-08-21T08:24:52.919Z,19.20
2022-08-21T08:27:19.882Z,19.30
2022-08-21T08:29:46.889Z,19.40
2022-08-21T08:32:13.928Z,19.50
2022-08-21T08:34:40.953Z,19.50
2022-08-21T08:37:09.196Z,19.70
2022-08-21T08:39:36.300Z,19.70
2022-08-21T08:42:32.084Z,19.80
2022-08-21T08:45:12.166Z,19.80
2022-08-21T08:47:43.499Z,19.80
2022-08-21T08:50:29.273Z,19.80
2022-08-21T08:53:01.483Z,19.80
2022-08-21T08:55:33.361Z,19.80
2022-08-21T08:58:00.366Z,19.90
2022-08-21T09:00:27.329Z,19.90
2022-08-21T09:02:56.723Z,20.00
2022-08-21T09:05:26.452Z,20.00
2022-08-21T09:08:35.557Z,20.00
2022-08-21T09:11:32.682Z,20.10
2022-08-21T09:14:06.848Z,20.10
2022-08-21T09:16:42.656Z,20.10
2022-08-21T09:19:09.603Z,20.10
2022-08-21T09:22:09.238Z,20.10
2022-08-21T09:24:58.557Z,20.20
2022-08-21T09:27:26.566Z,20.40
2022-08-21T09:29:55.355Z,20.50
2022-08-21T09:32:37.638Z,20.50
2022-08-21T09:35:17.098Z,20.60
2022-08-21T09:38:06.621Z,20.60
2022-08-21T09:40:38.381Z,20.60
2022-08-21T09:43:19.911Z,20.60
2022-08-21T09:45:47.796Z,20.70
2022-08-21T09:48:22.504Z,20.80
2022-08-21T09:50:53.753Z,20.90
2022-08-21T09:53:26.248Z,20.80
2022-08-21T09:56:11.703Z,20.90
2022-08-21T09:58:40.923Z,21.00
2022-08-21T10:01:08.114Z,21.10
2022-08-21T10:03:35.095Z,21.10
2022-08-21T10:06:09.631Z,21.10
2022-08-21T10:08:41.134Z,21.20
2022-08-21T10:11:10.839Z,21.50
2022-08-21T10:14:03.489Z,21.90
2022-08-21T10:16:41.227Z,22.20
2022-08-21T10:19:26.089Z,22.40
2022-08-21T10:22:05.641Z,22.60
2022-08-21T10:24:35.062Z,22.70
2022-08-21T10:27:02.169Z,22.80
2022-08-21T10:30:07.111Z,22.80
2022-08-21T10:33:15.553Z,22.80
2022-08-21T10:36:00.800Z,22.90
2022-08-21T10:38:50.481Z,23.20
2022-08-21T10:41:27.303Z,23.20
2022-08-21T10:44:15.632Z,23.40
2022-08-21T10:47:02.718Z,23.50
2022-08-21T10:49:46.430Z,23.50
2022-08-21T10:52:32.117Z,23.70
2022-08-21T10:55:21.924Z,23.60
2022-08-21T10:57:57.727Z,23.50
2022-08-21T11:00:54.736Z,23.60
2022-08-21T11:03:34.199Z,23.70
2022-08-21T11:06:07.080Z,23.70
2022-08-21T11:08:43.631Z,23.90
2022-08-21T11:11:13.518Z,24.00
2022-08-21T11:14:10.941Z,23.90
2022-08-21T11:29:34.920Z,23.90
2022-08-21T11:32:30.784Z,23.80
2022-08-21T11:58:03.922Z,23.50
2022-08-21T12:00:53.455Z,23.50
2022-08-21T12:03:38.963Z,23.90
2022-08-21T12:06:12.560Z,24.20
2022-08-21T12:08:41.405Z,24.20
2022-08-21T12:11:18.624Z,24.30
2022-08-21T12:14:06.907Z,24.30
2022-08-21T12:16:41.858Z,24.30
2022-08-21T12:19:21.425Z,24.40
2022-08-21T12:21:55.792Z,24.40
2022-08-21T12:24:28.569Z,24.50
2022-08-21T12:26:59.030Z,24.40
2022-08-21T12:29:30.492Z,24.40
2022-08-21T12:32:06.485Z,24.40
2022-08-21T12:34:37.303Z,24.40
2022-08-21T12:37:07.064Z,24.40
2022-08-21T12:39:35.100Z,24.50
2022-08-21T12:42:04.769Z,24.50
2022-08-21T12:44:42.199Z,24.80
2022-08-21T12:47:52.200Z,25.10
2022-08-21T12:50:22.814Z,25.40
2022-08-21T12:53:29.878Z,25.30
2022-08-21T12:56:02.157Z,25.40
2022-08-21T12:58:29.078Z,25.60
2022-08-21T13:01:25.690Z,25.90
2022-08-21T13:04:04.120Z,25.70
2022-08-21T13:06:38.061Z,25.40
2022-08-21T13:09:07.117Z,25.40
2022-08-21T13:11:34.230Z,25.90
2022-08-21T13:14:04.599Z,26.30
2022-08-21T13:16:32.116Z,27.10
2022-08-21T13:19:07.254Z,28.00
2022-08-21T13:21:42.451Z,28.20
2022-08-21T13:24:45.659Z,28.00
2022-08-21T13:27:38.771Z,28.60
2022-08-21T13:30:18.554Z,29.00
2022-08-21T13:32:49.747Z,29.10
2022-08-21T13:35:26.587Z,29.30
2022-08-21T13:37:53.432Z,29.90
2022-08-21T13:40:22.778Z,30.40
2022-08-21T13:42:49.868Z,30.80
2022-08-21T13:45:25.477Z,31.70
2022-08-21T13:47:53.367Z,31.70
2022-08-21T13:50:21.070Z,31.30
2022-08-21T13:53:00.082Z,31.30
2022-08-21T13:55:27.096Z,32.10
2022-08-21T13:58:01.655Z,33.10
2022-08-21T14:00:29.984Z,33.50
2022-08-21T14:03:14.581Z,33.40
2022-08-21T14:05:46.263Z,33.40
2022-08-21T14:08:13.661Z,33.30
2022-08-21T14:10:45.732Z,33.00
2022-08-21T14:13:46.355Z,33.30
2022-08-21T14:16:18.476Z,32.80
2022-08-21T14:18:49.804Z,32.60
2022-08-21T14:21:35.272Z,33.10
2022-08-21T14:24:24.323Z,32.60
2022-08-21T14:26:53.460Z,33.10
2022-08-21T14:29:20.876Z,33.50
2022-08-21T14:31:51.923Z,33.70
2022-08-21T14:34:19.923Z,34.20
2022-08-21T14:36:47.818Z,34.50
2022-08-21T14:39:14.552Z,33.70
2022-08-21T14:41:41.499Z,33.70
2022-08-21T14:44:09.638Z,34.00
2022-08-21T14:46:55.841Z,34.30
2022-08-21T14:49:27.134Z,34.80
2022-08-21T14:51:58.118Z,34.80
2022-08-21T14:54:31.076Z,34.80
2022-08-21T14:56:59.949Z,34.10
2022-08-21T14:59:26.790Z,33.00
2022-08-21T15:01:53.881Z,31.70
2022-08-21T15:04:20.791Z,31.00
2022-08-21T15:06:47.505Z,30.30
2022-08-21T15:09:14.258Z,29.90
2022-08-21T15:11:42.012Z,29.50
2022-08-21T15:14:10.851Z,30.20
2022-08-21T15:16:37.575Z,30.20
2022-08-21T15:19:04.406Z,30.00
2022-08-21T15:21:31.148Z,29.40
2022-08-21T15:23:57.973Z,29.10
2022-08-21T15:26:24.811Z,29.30
2022-08-21T15:28:51.833Z,29.80
2022-08-21T15:31:18.515Z,31.10
2022-08-21T15:33:45.289Z,32.10
2022-08-21T15:36:12.060Z,32.80
2022-08-21T15:38:38.959Z,33.60
2022-08-21T15:41:05.859Z,34.40
2022-08-21T15:43:48.005Z,35.30
2022-08-21T15:46:16.496Z,35.90
2022-08-21T15:48:43.209Z,36.10
2022-08-21T15:51:13.129Z,36.70
2022-08-21T15:53:41.027Z,37.50
2022-08-21T15:56:11.124Z,37.70
2022-08-21T15:58:38.062Z,38.20
2022-08-21T16:01:05.070Z,38.60
2022-08-21T16:03:32.307Z,38.10
2022-08-21T16:05:59.045Z,37.20
2022-08-21T16:08:26.063Z,37.10
2022-08-21T16:10:53.415Z,37.60
2022-08-21T16:13:26.253Z,38.00
2022-08-21T16:15:53.193Z,38.20
2022-08-21T16:18:20.334Z,37.90
2022-08-21T16:20:47.342Z,38.30
2022-08-21T16:23:14.540Z,38.70
2022-08-21T16:25:41.455Z,39.00
2022-08-21T16:28:10.356Z,39.40
2022-08-21T16:30:40.373Z,39.70
2022-08-21T16:33:08.547Z,39.20
2022-08-21T16:35:36.330Z,38.00
2022-08-21T16:38:03.072Z,37.90
2022-08-21T16:40:29.864Z,36.80
2022-08-21T16:42:56.793Z,35.50
2022-08-21T16:45:23.617Z,34.50
2022-08-21T16:47:51.287Z,33.80
2022-08-21T16:50:22.172Z,33.00
2022-08-21T16:52:49.223Z,32.30
2022-08-21T16:55:16.256Z,31.70
2022-08-21T16:57:43.221Z,31.20
2022-08-21T17:00:14.412Z,30.60
2022-08-21T17:02:47.282Z,30.20
2022-08-21T17:05:16.558Z,29.80
2022-08-21T17:07:44.083Z,29.40
2022-08-21T17:10:14.463Z,29.00
2022-08-21T17:12:43.101Z,28.40
2022-08-21T17:15:21.253Z,28.10
2022-08-21T17:17:48.517Z,27.50
2022-08-21T17:20:15.722Z,27.20
2022-08-21T17:22:42.524Z,26.80
2022-08-21T17:25:09.660Z,26.60
2022-08-21T17:27:36.435Z,26.50
2022-08-21T17:30:03.565Z,26.40
2022-08-21T17:32:30.465Z,26.20
2022-08-21T17:34:57.444Z,26.10
2022-08-21T17:37:28.652Z,26.00
2022-08-21T17:39:56.146Z,25.80
2022-08-21T17:42:23.707Z,25.70
2022-08-21T17:44:50.501Z,25.50
2022-08-21T17:47:17.573Z,25.30
2022-08-21T17:49:44.425Z,25.10
2022-08-21T17:52:11.541Z,25.00
2022-08-21T17:54:38.545Z,25.00
2022-08-21T17:57:05.337Z,25.00
2022-08-21T17:59:32.285Z,24.90
2022-08-21T18:02:01.675Z,24.80
2022-08-21T18:04:31.715Z,24.60
2022-08-21T18:06:58.493Z,24.70
2022-08-21T18:09:28.206Z,24.70
2022-08-21T18:11:56.825Z,24.70
2022-08-21T18:14:29.814Z,24.60
2022-08-21T18:16:57.302Z,24.50
2022-08-21T18:19:26.177Z,24.50
2022-08-21T18:21:54.064Z,24.40
2022-08-21T18:24:21.761Z,24.30
2022-08-21T18:26:49.706Z,24.20
2022-08-21T18:29:19.149Z,24.10
2022-08-21T18:31:47.180Z,23.90
2022-08-21T18:34:24.069Z,23.80
2022-08-21T18:36:51.316Z,23.70
2022-08-21T18:42:09.496Z,23.40
2022-08-21T18:44:36.243Z,23.30
2022-08-21T18:47:05.621Z,23.00
2022-08-21T18:49:32.718Z,22.90
2022-08-21T18:52:00.967Z,22.70
2022-08-21T18:54:30.059Z,22.70
2022-08-21T18:56:56.894Z,22.60
2022-08-21T18:59:26.032Z,22.50
2022-08-21T19:01:53.715Z,22.30
2022-08-21T19:04:43.044Z,22.20
2022-08-21T19:07:07.421Z,22.00
2022-08-21T19:09:34.257Z,21.90
2022-08-21T19:12:03.044Z,21.80
2022-08-21T19:14:29.784Z,21.70
2022-08-21T19:16:56.651Z,21.60
2022-08-21T19:19:23.720Z,21.60
2022-08-21T19:21:50.581Z,21.50
2022-08-21T19:24:18.253Z,21.30
2022-08-21T19:26:50.182Z,21.30
2022-08-21T19:29:34.757Z,21.20
2022-08-21T19:32:04.589Z,21.10
2022-08-21T19:34:31.374Z,21.10
2022-08-21T19:37:02.954Z,21.00
2022-08-21T19:39:31.331Z,20.90
2022-08-21T19:41:58.915Z,20.80
2022-08-21T19:44:28.213Z,20.70
2022-08-21T19:49:56.456Z,20.60
2022-08-21T19:52:23.241Z,20.50
2022-08-21T19:54:51.470Z,20.40
2022-08-21T19:57:18.599Z,20.40
2022-08-21T19:59:45.743Z,20.30
2022-08-21T20:02:17.274Z,20.30
2022-08-21T20:04:54.082Z,20.20
2022-08-21T20:07:26.441Z,20.10
2022-08-21T20:09:54.198Z,20.10
2022-08-21T20:12:20.973Z,20.00
2022-08-21T20:14:47.912Z,20.00
2022-08-21T20:17:15.476Z,19.90
2022-08-21T20:19:42.838Z,19.80
2022-08-21T20:22:10.631Z,19.80
2022-08-21T20:24:38.086Z,19.70
2022-08-21T20:27:06.770Z,19.60
2022-08-21T20:29:35.045Z,19.50
2022-08-21T20:32:05.938Z,19.50
2022-08-21T20:34:34.009Z,19.50
2022-08-21T20:37:01.787Z,19.40
2022-08-21T20:39:29.530Z,19.40
2022-08-21T20:41:57.291Z,19.40
2022-08-21T20:44:27.360Z,19.30
2022-08-21T20:46:54.210Z,19.30
2022-08-21T20:49:23.727Z,19.20
2022-08-21T20:51:51.637Z,19.20
2022-08-21T20:54:35.132Z,19.10
2022-08-21T20:57:45.597Z,19.10
2022-08-21T21:00:19.002Z,19.10
2022-08-21T21:03:16.407Z,19.00
2022-08-21T21:05:51.997Z,19.00
2022-08-21T21:08:25.279Z,18.90
2022-08-21T21:11:21.250Z,18.90
2022-08-21T21:14:02.329Z,18.80
2022-08-21T21:16:33.398Z,18.80
2022-08-21T21:19:02.590Z,18.70
2022-08-21T21:21:51.630Z,18.70
2022-08-21T21:24:23.280Z,18.60
2022-08-21T21:27:00.008Z,18.50
2022-08-21T21:29:31.936Z,18.50
2022-08-21T21:31:58.711Z,18.40
2022-08-21T21:34:26.042Z,18.50
2022-08-21T21:37:04.500Z,18.40
2022-08-21T21:39:43.086Z,18.40
2022-08-21T21:45:52.870Z,18.30
2022-08-21T21:48:50.597Z,18.30
2022-08-21T21:51:45.950Z,18.20
2022-08-21T21:54:28.498Z,18.10
2022-08-21T21:57:08.153Z,18.10
2022-08-21T22:00:00.838Z,18.00
2022-08-21T22:02:55.072Z,18.00
2022-08-21T22:05:45.810Z,17.90
2022-08-21T22:08:48.811Z,17.90
2022-08-21T22:11:28.576Z,17.90
2022-08-21T22:13:56.349Z,17.80
2022-08-21T22:16:23.371Z,17.70
2022-08-21T22:18:56.367Z,17.70
2022-08-21T22:21:34.756Z,17.60
2022-08-21T22:24:06.132Z,17.50
2022-08-21T22:26:44.456Z,17.50
2022-08-21T22:29:16.735Z,17.50
2022-08-21T22:31:44.347Z,17.40
2022-08-21T22:37:05.542Z,17.30
2022-08-21T22:39:43.377Z,17.30
2022-08-21T22:42:21.645Z,17.30
2022-08-21T22:44:58.234Z,17.30
2022-08-21T22:47:40.769Z,17.30
2022-08-21T22:50:25.795Z,17.30
2022-08-21T22:52:58.437Z,17.30
2022-08-21T22:55:26.840Z,17.20
2022-08-21T22:58:19.082Z,17.20
2022-08-21T23:00:53.747Z,17.10
2022-08-21T23:03:25.843Z,17.00
2022-08-21T23:05:58.073Z,17.00
2022-08-21T23:08:31.730Z,16.90
2022-08-21T23:11:00.977Z,16.90
2022-08-21T23:13:29.784Z,16.90
2022-08-21T23:16:30.276Z,16.90
2022-08-21T23:19:19.118Z,16.80
2022-08-21T23:21:52.424Z,16.80
2022-08-21T23:24:22.720Z,16.80
2022-08-21T23:27:15.467Z,16.70
2022-08-21T23:30:07.281Z,16.70
2022-08-21T23:33:00.384Z,16.60
2022-08-21T23:35:53.718Z,16.60
2022-08-21T23:38:28.992Z,16.60
2022-08-21T23:40:58.696Z,16.50
2022-08-21T23:43:50.192Z,16.40
2022-08-21T23:46:34.032Z,16.40
2022-08-21T23:49:17.547Z,16.40
2022-08-21T23:51:51.407Z,16.30
2022-08-21T23:54:27.090Z,16.20
2022-08-21T23:57:11.385Z,16.20
2022-08-21T23:59:57.413Z,16.20
